Prochaines Courses

Inscriptions en ligne

Connexion

Boulogne 10 Km

LES 10 KMS DE BOULOGNE du 30/06/13 (Réelle 10,5)
Rang Dossard Nom Prénom Temps Cat Rang Cat Ecart Ecart Cat Club Vitesse Km/h Temps au Km
1 243 OMUYA PAUL 00:33:16 SEM 1 00:00:00 00:00:00 RUN ELITE 18,938 03:10
2 37 PRUVOT YOHANN 00:33:49 SEM 2 00:00:33 00:00:33 A.S. MARCK 18,630 03:13
3 133 MONTADOR NICOLAS 00:34:20 SEM 3 00:01:04 00:01:04 ATHLETISME CLUB OUTREAU 18,350 03:16
4 308 LECARPENTIER FABRICE 00:34:35 V1M 1 00:01:19 00:00:00 NON LICENCIE 18,217 03:18
5 502 DELARACE JEAN-MARC 00:35:45 V1M 2 00:02:29 00:01:10 AC AUDOMAROIS 17,622 03:24
6 139 PICHONNIER GUILLAUME 00:35:50 SEM 4 00:02:34 00:02:34 ATHLETISME CLUB OUTREAU 17,581 03:25
7 378 BRUNO OLIVIER 00:36:33 SEM 5 00:03:17 00:03:17 O.S. AIRE 17,237 03:29
8 404 GUILBERT HERVE 00:36:36 V2M 1 00:03:20 00:00:00 R.C ARRAS 17,213 03:29
9 95 LEDOUX STEPHANE 00:36:57 SEM 6 00:03:41 00:03:41 EAC MERU 17,050 03:31
10 239 POISSON NICOLAS 00:37:12 SEM 7 00:03:56 00:03:56 MOUY ATAC 16,935 03:33
11 12 MOREL NICOLAS 00:37:15 SEM 8 00:03:59 00:03:59 TOUQUET OPALE ATHLETISME 16,913 03:33
12 373 CALOIN MATHIEU 00:37:46 SEM 9 00:04:30 00:04:30 TOUQUET OPALE ATHLETISME 16,681 03:36
13 97 BALAIR TONY 00:37:58 SEM 10 00:04:42 00:04:42 ATHLETISME CLUB OUTREAU 16,594 03:37
14 347 SUEUR FABRICE 00:38:17 V1M 3 00:05:01 00:03:42 SPORT EVASION DES 2 CAPS 16,456 03:39
15 20 CONDETTE JEAN-MICHEL 00:38:17 V1M 4 00:05:01 00:03:42 SPORT EVASION DES 2 CAPS 16,456 03:39
16 354 DUFOUR FABRICE 00:38:17 SEM 11 00:05:01 00:05:01 SPORT EVASION DES 2 CAPS 16,456 03:39
17 99 BEAUMONT DENIS 00:38:17 V1M 5 00:05:01 00:03:42 ATHLETISME CLUB OUTREAU 16,456 03:39
18 9 MILLE SEBASTIEN 00:38:36 SEM 12 00:05:20 00:05:20 TRIATHLON CLUB BOULONNAIS 16,321 03:41
19 312 LACROIX OLIVIER 00:38:43 SEM 13 00:05:27 00:05:27 AMICALE HOSPITALIERS BOULOGNE 16,272 03:41
20 254 CARBONNIER MICHEL 00:38:55 V1M 6 00:05:39 00:04:20 PATRIOTE CROSS DE GUINES 16,188 03:42
21 377 PATERNOSTER QUENTIN 00:38:55 SEM 14 00:05:39 00:05:39 NON LICENCIE 16,188 03:42
22 278 LEPRETRE CYRILLE 00:39:00 SEM 15 00:05:44 00:05:44 LE DRAPEAU 16,154 03:43
23 352 POCLET CEDRIC 00:39:13 SEM 16 00:05:57 00:05:57 ASD HESDIN 16,065 03:44
24 263 LOEUILLIEUX STEPHANE 00:39:20 V1M 7 00:06:04 00:04:45 LE DRAPEAU 16,017 03:45
25 103 BRUNEL STEPHANE 00:39:22 V1M 8 00:06:06 00:04:47 ATHLETISME CLUB OUTREAU 16,003 03:45
26 240 WILLER FRANCOIS 00:39:32 V1M 9 00:06:16 00:04:57 TOUQUET OPALE ATHLETISME 15,936 03:46
27 129 MASCOT GREGORY 00:39:36 V1M 10 00:06:20 00:05:01 ATHLETISME CLUB OUTREAU 15,909 03:46
28 256 DUPONT JEAN-PIERRE 00:39:38 V2M 2 00:06:22 00:03:02 PATRIOTES DE GUINES 15,896 03:46
29 8 DUCROCQ MARC-ANTOINE 00:39:40 SEM 17 00:06:24 00:06:24 NON LICENCIE 15,882 03:47
30 382 ?DOSSARD #382 00:39:42 SEM 18 00:06:26 00:06:26   15,869 03:47
31 260 DOCQUOIS FREDERIC 00:39:56 V1M 11 00:06:40 00:05:21 LE DRAPEAU 15,776 03:48
32 259 CARDON FLORIAN 00:39:57 JUM 1 00:06:41 00:00:00 LE DRAPEAU 15,770 03:48
33 465 DEGARDIN LAURENT 00:39:59 V1M 12 00:06:43 00:05:24 CAMIERS 15,757 03:48
34 298 MAQUINGHEN CHRISTOPHE 00:40:04 SEM 19 00:06:48 00:06:48 BOULOGNE ATHLETIQUE CLUB 15,724 03:49
35 447 GRARE FLORIAN 00:40:09 JUM 2 00:06:53 00:00:12 ENTENTE MARITIME ATHL. 15,691 03:49
36 322 LEBLANC DAVID 00:40:09 SEM 20 00:06:53 00:06:53 ATHLETIQUE CLUB CAPELLOIS 15,691 03:49
37 482 HAIGNERE WILLIAM 00:40:13 SEM 21 00:06:57 00:06:57 BOURTHES 15,665 03:50
38 455 LELEU WILLY 00:40:13 V1M 13 00:06:57 00:05:38 NON LICENCIE 15,665 03:50
39 232 BRUNEL JEAN-FRANCOIS 00:40:19 V1M 14 00:07:03 00:05:44 SAINT MARTIN ATHLETISME 15,626 03:50
40 449 GALANT JULIEN 00:40:27 SEM 22 00:07:11 00:07:11 NON LICENCIE 15,575 03:51
41 383 MORIN AYMERIC 00:40:33 SEM 23 00:07:17 00:07:17 NON LICENCIE 15,536 03:52
42 10 PRUVOT ROMAIN 00:40:38 SEM 24 00:07:22 00:07:22 NON LICENCIE 15,505 03:52
43 105 CALOIN WILLIAM 00:40:46 V1M 15 00:07:30 00:06:11 ATHLETISME CLUB OUTREAU 15,454 03:53
44 79 TETARD CHRISTOPHE 00:40:49 V1M 16 00:07:33 00:06:14 OPALE TRAIL NATURE 15,435 03:53
45 55 DUVAL ROMAIN 00:40:56 SEM 25 00:07:40 00:07:40 NON LICENCIE 15,391 03:54
46 126 MAILLARD ADRIEN 00:40:56 SEM 26 00:07:40 00:07:40 ATHLETISME CLUB OUTREAU 15,391 03:54
47 94 PRUVOST PASCAL 00:41:02 V1M 17 00:07:46 00:06:27 O.S. AIRE 15,353 03:54
48 376 BOURGAIN MICKAEL 00:41:02 SEM 27 00:07:46 00:07:46 OPALE TRAIL NATURE 15,353 03:54
49 450 LEGRAND OLIVIER 00:41:07 V1M 18 00:07:51 00:06:32 NON LICENCIE 15,322 03:55
50 14 VAILLANT JEROME 00:41:09 SEM 28 00:07:53 00:07:53 NON LICENCIE 15,310 03:55
51 422 VANAUTRYVE DAVID 00:41:10 V1M 19 00:07:54 00:06:35   15,304 03:55
52 117 GALLEZ JEROME 00:41:12 V1M 20 00:07:56 00:06:37 ATHLETISME CLUB OUTREAU 15,291 03:55
53 403 LANDRECIES LOIC 00:41:15 SEM 29 00:07:59 00:07:59 NON LICENCIE 15,273 03:56
54 33 DELVALLEE ALEXANDRE 00:41:20 SEM 30 00:08:04 00:08:04 NON LICENCIE 15,242 03:56
55 337 SCHUPPE CLOTAIRE 00:41:20 V2M 3 00:08:04 00:04:44 A.S. MARCK 15,242 03:56
56 310 FORESTIER ALAIN 00:41:21 V1M 21 00:08:05 00:06:46 AMICALE HOSPITALIERS BOULOGNE 15,236 03:56
57 217 CHAUCHOY LOIC 00:41:22 SEM 31 00:08:06 00:08:06 COLEMBERT 15,230 03:56
58 394 MACQUET BENOIT 00:41:35 SEM 32 00:08:19 00:08:19 NON LICENCIE 15,150 03:58
59 111 DEFIENNES CLAUDE 00:41:50 V3M 1 00:08:34 00:00:00 ATHLETISME CLUB OUTREAU 15,060 03:59
60 405 MAC-LEAN ARNAUD 00:41:54 V1M 22 00:08:38 00:07:19 NON LICENCIE 15,036 03:59
61 317 RUMEAU MICHAEL 00:41:55 SEM 33 00:08:39 00:08:39 ATHLETIQUE CLUB CAPELLOIS 15,030 04:00
62 301 DESEILLE GAUTIER 00:41:56 CAM 1 00:08:40 00:00:00 BOULOGNE ATHLETIQUE CLUB 15,024 04:00
63 26 DIEVAL JACQUES 00:41:58 V1M 23 00:08:42 00:07:23 NON LICENCIE 15,012 04:00
64 61 VANDEWALLE THOMAS 00:42:01 SEM 34 00:08:45 00:08:45 NON LICENCIE 14,994 04:00
65 268 LEVEL FABIEN 00:42:10 SEM 35 00:08:54 00:08:54 LE DRAPEAU 14,941 04:01
66 349 MARTEL FRANCK 00:42:11 V1M 24 00:08:55 00:07:36 A.S. MARCK 14,935 04:01
67 224 DUMONT LUDOVIC 00:42:14 SEM 36 00:08:58 00:08:58 NON LICENCIE 14,917 04:01
68 161 DUCROCQ YVES 00:42:14 V2M 4 00:08:58 00:05:38 NON LICENCIE 14,917 04:01
69 142 RINGOT STEPHANIE 00:42:17 SEF 1 00:09:01 00:00:00 ATHLETISME CLUB OUTREAU 14,899 04:02
70 114 DESACHY DAVID 00:42:18 SEM 37 00:09:02 00:09:02 ATHLETISME CLUB OUTREAU 14,894 04:02
71 280 TISON JEREMIE 00:42:21 SEM 38 00:09:05 00:09:05 LE DRAPEAU 14,876 04:02
72 305 HALLENNE VALERY 00:42:23 V1M 25 00:09:07 00:07:48 TOUQUET OPALE ATHLETISME 14,864 04:02
73 295 DEPLECHIN DAVID 00:42:24 SEM 39 00:09:08 00:09:08 NON LICENCIE 14,858 04:02
74 371 LABRADOR JUAN-CARLOS 00:42:26 SEM 40 00:09:10 00:09:10 NON LICENCIE 14,847 04:02
75 131 MERLIER ALAIN 00:42:31 V1M 26 00:09:15 00:07:56 ATHLETISME CLUB OUTREAU 14,818 04:03
76 200 CAPART HUGO 00:42:32 CAM 2 00:09:16 00:00:36 NON LICENCIE 14,812 04:03
77 90 GODART JEAN-CHRISTOPHE 00:42:35 SEM 41 00:09:19 00:09:19 NON LICENCIE 14,795 04:03
78 333 LEMAITRE LAURENT 00:42:43 V1M 27 00:09:27 00:08:08 NON LICENCIE 14,748 04:04
79 194 GRESSIER OLIVIER 00:42:45 V1M 28 00:09:29 00:08:10 FREVENT OLYMPIC CLUB 14,737 04:04
80 89 PERNIN TONY 00:42:51 SEM 42 00:09:35 00:09:35 NON LICENCIE 14,702 04:05
81 389 LECOUSTRE WILFRIED 00:42:52 SEM 43 00:09:36 00:09:36 NON LICENCIE 14,697 04:05
82 42 DUCROCQ CHRISTOPHE 00:42:53 V1M 29 00:09:37 00:08:18 NON LICENCIE 14,691 04:05
83 369 GAVEL GAUTHIER 00:42:55 SEM 44 00:09:39 00:09:39 NON LICENCIE 14,680 04:05
84 164 PARENTY GABRIEL 00:42:58 SEM 45 00:09:42 00:09:42 NON LICENCIE 14,663 04:06
85 191 KUSCHNICK THOMAS 00:42:59 SEM 46 00:09:43 00:09:43 NON LICENCIE 14,657 04:06
86 481 PAUCHET JOEL 00:43:02 V1M 30 00:09:46 00:08:27 O.S. AIRE 14,640 04:06
87 276 SPILLIAERT FLORENCE 00:43:10 V1F 1 00:09:54 00:00:00 LE DRAPEAU 14,595 04:07
88 143 ROGERE STEPHANE 00:43:11 V1M 31 00:09:55 00:08:36 ATHLETISME CLUB OUTREAU 14,589 04:07
89 69 BORDEZ FRANCK 00:43:12 V2M 5 00:09:56 00:06:36 SPORT PLUS 14,583 04:07
90 252 LEMAITRE NICOLAS 00:43:14 SEM 47 00:09:58 00:09:58 PATRIOTES DE GUINES 14,572 04:07
91 149 MERLIN LOIC 00:43:14 SEM 48 00:09:58 00:09:58 NON LICENCIE 14,572 04:07
92 158 SAGOT PHILIPPE 00:43:15 V1M 32 00:09:59 00:08:40 ARC INTERNATIONAL 14,566 04:07
93 348 KRISSAANE HEDI 00:43:17 V1M 33 00:10:01 00:08:42 A.S. MARCK 14,555 04:07
94 459 BULTEZ LUDOVIC 00:43:18 V1M 34 00:10:02 00:08:43 NON LICENCIE 14,550 04:07
95 205 RAY SAMUEL 00:43:20 V1M 35 00:10:04 00:08:45 CULTURE DANSE ETAPLES 14,538 04:08
96 165 FONTAINE NICOLAS 00:43:26 SEM 49 00:10:10 00:10:10 NON LICENCIE 14,505 04:08
97 414 CARON OLIVIER 00:43:27 SEM 50 00:10:11 00:10:11 NON LICENCIE 14,499 04:08
98 98 BAUDELET DAVID 00:43:27 SEM 51 00:10:11 00:10:11 ATHLETISME CLUB OUTREAU 14,499 04:08
99 580023 ?DOSSARD #580023 00:43:27 SEM 52 00:10:11 00:10:11   14,499 04:08
100 368 ROCHE BERNARD 00:43:29 V2M 6 00:10:13 00:06:53 NON LICENCIE 14,488 04:08
101 107 COPPIN NICOLAS 00:43:30 V1M 36 00:10:14 00:08:55 ATHLETISME CLUB OUTREAU 14,483 04:09
102 321 NOEL DAVID 00:43:32 V1M 37 00:10:16 00:08:57 ATHLETIQUE CLUB CAPELLOIS 14,472 04:09
103 167 DACQUIN FABIEN 00:43:38 V1M 38 00:10:22 00:09:03 TEAM TRAIL 62 14,439 04:09
104 197 HARDY FABIEN 00:43:41 V1M 39 00:10:25 00:09:06 LES JOGGEURS DE GUEMPS 14,422 04:10
105 216 CHAUCHOY OLIVIER 00:43:41 V1M 40 00:10:25 00:09:06 COLEMBERT 14,422 04:10
106 156 DUBOIS STEPHANE 00:43:42 SEM 53 00:10:26 00:10:26 ARC INTERNATIONAL 14,416 04:10
107 326 LECLERCQ MAXIME 00:43:43 SEM 54 00:10:27 00:10:27 C.S. NESLES 14,411 04:10
108 262 FLAHAUT DANIEL 00:43:44 V1M 41 00:10:28 00:09:09 LE DRAPEAU 14,405 04:10
109 441 PARENT SIMON 00:43:45 JUM 3 00:10:29 00:03:48 NON LICENCIE 14,400 04:10
110 345 FORYCKI LUDOVIC 00:43:52 SEM 55 00:10:36 00:10:36 NON LICENCIE 14,362 04:11
111 277 CHOUROT LUCIEN 00:43:53 V2M 7 00:10:37 00:07:17 LE DRAPEAU 14,356 04:11
112 110 DEBUSSCHERE MIKAEL 00:43:54 SEM 56 00:10:38 00:10:38 ATHLETISME CLUB OUTREAU 14,351 04:11
113 462 LAMARRE JEAN-LUC 00:43:55 V2M 8 00:10:39 00:07:19 NON LICENCIE 14,345 04:11
114 300 LECRIVAIN MAXIME 00:43:57 CAM 3 00:10:41 00:02:01 BOULOGNE ATHLETIQUE CLUB 14,334 04:11
115 356 LEVEL EDDY 00:44:01 SEM 57 00:10:45 00:10:45 NON LICENCIE 14,313 04:12
116 470 MORTIER ARMAND 00:44:03 SEM 58 00:10:47 00:10:47 NON LICENCIE 14,302 04:12
117 472 MAGNIER DAVID 00:44:05 SEM 59 00:10:49 00:10:49 CALOTTERIE 14,291 04:12
118 144 ROGERE MARC 00:44:05 SEM 60 00:10:49 00:10:49 ATHLETISME CLUB OUTREAU 14,291 04:12
119 238 MAZURIER ALAIN 00:44:07 V1M 42 00:10:51 00:09:32 PATRIOTES DE GUINES 14,280 04:12
120 134 MORICE ARNAUD 00:44:08 SEM 61 00:10:52 00:10:52 ATHLETISME CLUB OUTREAU 14,275 04:12
121 190 LEHON LUDOVIC 00:44:09 SEM 62 00:10:53 00:10:53 NON LICENCIE 14,270 04:12
122 186 CABY RAPHAEL 00:44:12 V1M 43 00:10:56 00:09:37 WIMEREUX RUNNING CLUB 14,253 04:13
123 452 BREFORT MICKAEL 00:44:14 SEM 63 00:10:58 00:10:58 NON LICENCIE 14,243 04:13
124 169 DETRES JEAN-BERNARD 00:44:15 V1M 44 00:10:59 00:09:40 AS - Mark Athlétisme 14,237 04:13
125 1 BRETON CRISTOPHE 00:44:15 V1M 45 00:10:59 00:09:40 A.S. MARCK 14,237 04:13
126 132 MINARD MATTHIEU 00:44:19 SEM 64 00:11:03 00:11:03 ATHLETISME CLUB OUTREAU 14,216 04:13
127 424 DELATTAIGNANT ARNAUD 00:44:21 V1M 46 00:11:05 00:09:46 NON LICENCIE 14,205 04:13
128 267 LEVEL LINA 00:44:22 SEF 2 00:11:06 00:02:05 LE DRAPEAU 14,200 04:14
129 17 PILLE LAURENT 00:44:25 SEM 65 00:11:09 00:11:09 NON LICENCIE 14,184 04:14
130 52 QUENUT FRANCK 00:44:27 V1M 47 00:11:11 00:09:52 O.S. AIRE 14,173 04:14
131 493 LEPOUX MAXIME 00:44:27 SEM 66 00:11:11 00:11:11   14,173 04:14
132 381 DESCAMPS ARNAUD 00:44:31 SEM 67 00:11:15 00:11:15 A.S. MARCK 14,152 04:14
133 340 POCHET AURELIEN 00:44:33 SEM 68 00:11:17 00:11:17 BOULOGNE ATHLETIQUE CLUB 14,141 04:15
134 121 LASSALLE PASCAL 00:44:37 V1M 48 00:11:21 00:10:02 ATHLETISME CLUB OUTREAU 14,120 04:15
135 390 BIGOT SULLIVAN 00:44:38 SEM 69 00:11:22 00:11:22   14,115 04:15
136 173 DUBRULLE FRANCK 00:44:40 V2M 9 00:11:24 00:08:04 WIMEREUX RUNNING CLUB 14,104 04:15
137 273 INGOUF NATHALIE 00:44:45 V1F 2 00:11:29 00:01:35 LE DRAPEAU 14,078 04:16
138 220 BUY JACQUES 00:44:46 V2M 10 00:11:30 00:08:10 PATRIOTES DE GUINES 14,073 04:16
139 106 CAULIER FREDDY 00:44:47 V2M 11 00:11:31 00:08:11 ATHLETISME CLUB OUTREAU 14,068 04:16
140 146 ROSE FREDERIC 00:44:49 V1M 49 00:11:33 00:10:14 ATHLETISME CLUB OUTREAU 14,057 04:16
141 334 ROSE SYLVIE 00:44:49 V1F 3 00:11:33 00:01:39 BODY FITNESS CLUB 14,057 04:16
142 387 FOURDINIER PAUL 00:44:53 SEM 70 00:11:37 00:11:37 NON LICENCIE 14,036 04:16
143 281 DAMIENS PHILIPPE 00:44:55 V1M 50 00:11:39 00:10:20 LE DRAPEAU 14,026 04:17
144 100 BOBEE NATHALIE 00:44:58 V1F 4 00:11:42 00:01:48 ATHLETISME CLUB OUTREAU 14,010 04:17
145 195 DELAVIEZ JEAN-MARC 00:44:58 V2M 12 00:11:42 00:08:22 FREVENT OLYMPIC CLUB 14,010 04:17
146 92 ROBART EDDY 00:45:01 V1M 51 00:11:45 00:10:26 C.S. NESLES 13,995 04:17
147 329 DUFOUR ANTOINE 00:45:02 JUM 4 00:11:46 00:05:05 C.S. NESLES 13,990 04:17
148 245 PAVY FREDERIC 00:45:02 V1M 52 00:11:46 00:10:27 NON LICENCIE 13,990 04:17
149 253 BATILLIOT DOMINIQUE 00:45:05 V1F 5 00:11:49 00:01:55 PATRIOTES DE GUINES 13,974 04:18
150 496 LANOY ADRIEN 00:45:08 SEM 71 00:11:52 00:11:52 NON LICENCIE 13,959 04:18
151 122 LELAN CEDRIC 00:45:19 V1M 53 00:12:03 00:10:44 ATHLETISME CLUB OUTREAU 13,902 04:19
152 448 LETITRE BRUNO 00:45:20 SEM 72 00:12:04 00:12:04 NON LICENCIE 13,897 04:19
153 202 VANGAEVEREN ROMAIN 00:45:21 SEM 73 00:12:05 00:12:05 NON LICENCIE 13,892 04:19
154 22 GOURNAY DAVID 00:45:23 SEM 74 00:12:07 00:12:07 NON LICENCIE 13,882 04:19
155 11 SENET EMILIE 00:45:33 SEF 3 00:12:17 00:03:16 A.S. MARCK 13,831 04:20
156 358 TAVERNE DAMIEN 00:45:41 SEM 75 00:12:25 00:12:25 EFS REIMS 13,791 04:21
157 272 MARIETTE YVETTE 00:45:46 V2F 1 00:12:30 00:00:00 LE DRAPEAU 13,765 04:22
158 81 GIGADEN FRANCK 00:45:48 V1M 54 00:12:32 00:11:13 X'TREM TEAM 13,755 04:22
159 16 COUVELARD OLIVIER 00:45:50 V1M 55 00:12:34 00:11:15 NON LICENCIE 13,745 04:22
160 188 GAGNE DIDIER 00:45:52 V1M 56 00:12:36 00:11:17 NON LICENCIE 13,735 04:22
161 93 LAURENT JOCELYN 00:45:53 V2M 13 00:12:37 00:09:17 C.S. NESLES 13,730 04:22
162 201 VERMOOTE CHRISTELE 00:45:55 V1F 6 00:12:39 00:02:45 NON LICENCIE 13,721 04:22
163 214 DUCROQUET MICHEL 00:45:55 V3M 2 00:12:39 00:04:05 COLEMBERT 13,721 04:22
164 457 LACROIX GILLES 00:45:56 V1M 57 00:12:40 00:11:21 NON LICENCIE 13,716 04:22
165 5 PAINSET NICOLAS 00:45:57 SEM 76 00:12:41 00:12:41 NON LICENCIE 13,711 04:23
166 135 MOLMY DAVID 00:46:06 V1M 58 00:12:50 00:11:31 ATHLETISME CLUB OUTREAU 13,666 04:23
167 178 RYCKEWAERT XAVIER 00:46:07 SEM 77 00:12:51 00:12:51 WIMEREUX RUNNING CLUB 13,661 04:24
168 28 JUSTIN LUCIEN 00:46:11 V3M 3 00:12:55 00:04:21 ATHLETISME CLUB OUTREAU 13,641 04:24
169 271 GRESSIER YANNICK 00:46:11 V1M 59 00:12:55 00:11:36 LE DRAPEAU 13,641 04:24
170 375 HACQUEL MICHEL 00:46:13 V1M 60 00:12:57 00:11:38 NON LICENCIE 13,631 04:24
171 374 LESCIELLOUR BRUNO 00:46:13 V1M 61 00:12:57 00:11:38 NON LICENCIE 13,631 04:24
172 438 LEJEUNE THOMAS 00:46:17 SEM 78 00:13:01 00:13:01 HAFFREINGHE 13,612 04:24
173 67 MAHIEUX JEAN LUC 00:46:18 V2M 14 00:13:02 00:09:42 NON LICENCIE 13,607 04:25
174 412 PRUVOST ALEXANDRE 00:46:23 SEM 79 00:13:07 00:13:07 PATRIOTES DE GUINES 13,582 04:25
175 417 DESTREZ CHRISTOPHE 00:46:24 V1M 62 00:13:08 00:11:49 NON LICENCIE 13,578 04:25
176 497 GUYOT REMI 00:46:29 SEM 80 00:13:13 00:13:13 NON LICENCIE 13,553 04:26
177 175 TILLIER LUDOVIC 00:46:30 SEM 81 00:13:14 00:13:14 WIMEREUX RUNNING CLUB 13,548 04:26
178 120 HOCQ BRUNO 00:46:33 V1M 63 00:13:17 00:11:58 ATHLETISME CLUB OUTREAU 13,534 04:26
179 75 FLOURET LAUGIER STEPHANIE 00:46:35 SEF 4 00:13:19 00:04:18 SPORT PLUS 13,524 04:26
180 76 METTIER JEAN-FRANCOIS 00:46:36 V1M 64 00:13:20 00:12:01 SPORT PLUS 13,519 04:26
181 73 DECOTTE GERARD 00:46:37 V2M 15 00:13:21 00:10:01 SPORT PLUS 13,514 04:26
182 332 DELACROIX SYLVAIN 00:46:39 SEM 82 00:13:23 00:13:23 NON LICENCIE 13,505 04:27
183 215 DETHOOR DOMINIQUE 00:46:45 V2M 16 00:13:29 00:10:09 COLEMBERT 13,476 04:27
184 461 BOUVOT CYRILLE 00:46:52 SEM 83 00:13:36 00:13:36 NON LICENCIE 13,442 04:28
185 284 BOUTILLIER MARC 00:46:55 V2M 17 00:13:39 00:10:19 LE DRAPEAU 13,428 04:28
186 500 DEHOUCK VALENTIN 00:46:55 JUM 5 00:13:39 00:06:58 T2 CAP ATHLON 13,428 04:28
187 119 GRASSELLI SABRINA 00:46:57 SEF 5 00:13:41 00:04:40 ATHLETISME CLUB OUTREAU 13,419 04:28
188 488 CARPENTIER NICOLAS 00:47:01 SEM 84 00:13:45 00:13:45 NON LICENCIE 13,400 04:29
189 460 RICHET KEVIN 00:47:05 SEM 85 00:13:49 00:13:49 NON LICENCIE 13,381 04:29
190 128 MAILLOT JEAN-LOUIS 00:47:10 V2M 18 00:13:54 00:10:34 ATHLETISME CLUB OUTREAU 13,357 04:30
191 400 MOUNINE SLIMANE 00:47:11 SEM 86 00:13:55 00:13:55   13,352 04:30
192 208 ROUSSEL STEPHANE 00:47:14 V2M 19 00:13:58 00:10:38 COLEMBERT 13,338 04:30
193 29 GIGADEN EDDY 00:47:14 SEM 87 00:13:58 00:13:58 NON LICENCIE 13,338 04:30
194 36 LAID KAMEL 00:47:15 SEM 88 00:13:59 00:13:59 NON LICENCIE 13,333 04:30
195 137 NAVET SEBASTIEN 00:47:15 V1M 65 00:13:59 00:12:40 ATHLETISME CLUB OUTREAU 13,333 04:30
196 431 RATEL ETIENNE 00:47:17 SEM 89 00:14:01 00:14:01 NON LICENCIE 13,324 04:30
197 230 SIABAS JEAN-MICHEL 00:47:20 V1M 66 00:14:04 00:12:45 SAINT MARTIN ATHLETISME 13,310 04:30
198 72 CHOCHOY THIERRY 00:47:20 V2M 20 00:14:04 00:10:44 SPORT PLUS 13,310 04:30
199 269 LELEU LAETITIA 00:47:23 SEF 6 00:14:07 00:05:06 LE DRAPEAU 13,296 04:31
200 68 CRETON JULIEN 00:47:23 SEM 90 00:14:07 00:14:07 NON LICENCIE 13,296 04:31
201 341 DUMONT PATRICE 00:47:29 SEM 91 00:14:13 00:14:13 BOURTHES 13,268 04:31
202 212 LEVISSE DENIS 00:47:31 V2M 21 00:14:15 00:10:55 COLEMBERT 13,259 04:32
203 339 RIVET NICOLAS 00:47:34 SEM 92 00:14:18 00:14:18 BAC 13,245 04:32
204 251 TARTART SYLVIE 00:47:34 V1F 7 00:14:18 00:04:24 PATRIOTES DE GUINES 13,245 04:32
205 171 KUPCZIK MARIAN 00:47:37 SEM 93 00:14:21 00:14:21 NON LICENCIE 13,231 04:32
206 398 FRAMERY JEAN-BAPTISTE 00:47:38 SEM 94 00:14:22 00:14:22 NON LICENCIE 13,226 04:32
207 487 GOLLIOT ANTOINE 00:47:38 SEM 95 00:14:22 00:14:22 EFS REIMS 13,226 04:32
208 350 SAVEANT GUILLAUME 00:47:58 SEM 96 00:14:42 00:14:42 NON LICENCIE 13,134 04:34
209 320 BREQUEVILLE LIONEL 00:48:01 V1M 67 00:14:45 00:13:26 ATHLETIQUE CLUB CAPELLOIS 13,120 04:34
210 228 PERARD FREDDY 00:48:04 V2M 22 00:14:48 00:11:28 SAINT MARTIN ATHLETISME 13,107 04:35
211 327 JOYE ANITA 00:48:07 V2F 2 00:14:51 00:02:21 SAINT DENIS EMOTION 13,093 04:35
212 357 LHOMEL ANTOINE 00:48:10 SEM 97 00:14:54 00:14:54   13,080 04:35
213 257 HANON JEAN-PIERRE 00:48:14 V2M 23 00:14:58 00:11:38 LE DRAPEAU 13,062 04:36
214 234 SPECQ PHILIPPE 00:48:15 V1M 68 00:14:59 00:13:40 JOGGING CLUB LICQUOIS 13,057 04:36
215 283 NAJMI AICHA 00:48:15 V1F 8 00:14:59 00:05:05 LE DRAPEAU 13,057 04:36
216 297 FORIENT PIERRICK 00:48:16 V1M 69 00:15:00 00:13:41 T2 CAP ATHLON 13,052 04:36
217 258 DOCQUOIS MICHEL 00:48:19 V1M 70 00:15:03 00:13:44 LE DRAPEAU 13,039 04:36
218 78 BAILLY JULIEN 00:48:25 SEM 98 00:15:09 00:15:09 SPORT PLUS 13,012 04:37
219 25 BALY PATRICK 00:48:28 V2M 24 00:15:12 00:11:52 OGS CYCLISME 12,999 04:37
220 151 RIGOULET PASCAL 00:48:34 V1M 71 00:15:18 00:13:59 COTE D'OPALE TRIATHLON CS 12,972 04:38
221 430 THYOT RENAUD 00:48:36 SEM 99 00:15:20 00:15:20 NON LICENCIE 12,963 04:38
222 419 CAPIAUX FABIEN 00:48:38 V1M 72 00:15:22 00:14:03 MARQUISE 12,954 04:38
223 429 BOUTLEUX GUY 00:48:39 V3M 4 00:15:23 00:06:49 NON LICENCIE 12,950 04:38
224 372 BAHEUX SEBASTIEN 00:48:45 SEM 100 00:15:29 00:15:29 NON LICENCIE 12,923 04:39
225 210 MARIQUE MARCEAU 00:48:48 JUM 6 00:15:32 00:08:51 COLEMBERT 12,910 04:39
226 408 SEGUIN DIDIER 00:48:52 V1M 73 00:15:36 00:14:17 OPALE TRAIL NATURE 12,892 04:39
227 451 DUMINIL ENZO 00:48:56 SEM 101 00:15:40 00:15:40 NON LICENCIE 12,875 04:40
228 255 BUCHER ERIC 00:48:58 V1M 74 00:15:42 00:14:23 PATRIOTES DE GUINES 12,866 04:40
229 275 LAHAYE MICHEL 00:48:58 V2M 25 00:15:42 00:12:22 LE DRAPEAU 12,866 04:40
230 428 DELATTRE JOHANN 00:48:59 SEM 102 00:15:43 00:15:43 NON LICENCIE 12,862 04:40
231 489 LEBEC MICHAEL 00:49:02 SEM 103 00:15:46 00:15:46 NON LICENCIE 12,848 04:40
232 397 VANAUTRYVE JEAN-MARC 00:49:03 V1M 75 00:15:47 00:14:28 NON LICENCIE 12,844 04:40
233 304 LEGRAND EDDY 00:49:06 SEM 104 00:15:50 00:15:50   12,831 04:41
234 299 MAY CLAUDIE 00:49:09 V1F 9 00:15:53 00:05:59 ENTENTE MARITIME ATHL. 12,818 04:41
235 392 LECOUSTRE KEVIN 00:49:11 SEM 105 00:15:55 00:15:55 NON LICENCIE 12,809 04:41
236 494 HENQUEZ YVES 00:49:12 V4M 1 00:15:56 00:00:00 PATRIOTES DE GUINES 12,805 04:41
237 391 SIX GASPARD 00:49:16 SEM 106 00:16:00 00:16:00 ENTENTE MARITIME ATHL. 12,788 04:42
238 316 REGNIER CHRISTINE 00:49:18 V1F 10 00:16:02 00:06:08 ATHLETIQUE CLUB CAPELLOIS 12,779 04:42
239 353 BABIN NICOLAS 00:49:18 SEM 107 00:16:02 00:16:02 NON LICENCIE 12,779 04:42
240 355 BABIN LORY 00:49:19 SEM 108 00:16:03 00:16:03   12,775 04:42
241 177 FONTAINE XAVIER 00:49:20 V2M 26 00:16:04 00:12:44 WIMEREUX RUNNING CLUB 12,770 04:42
242 154 BEGUE YANNICK 00:49:22 V1M 76 00:16:06 00:14:47 NON LICENCIE 12,762 04:42
243 150 LAVERDURE PASCAL 00:49:26 V2M 27 00:16:10 00:12:50 NON LICENCIE 12,744 04:42
244 409 GOLLIOT THOMAS 00:49:27 SEM 109 00:16:11 00:16:11 NON LICENCIE 12,740 04:43
245 274 HANON LILIANE 00:49:29 V2F 3 00:16:13 00:03:43 LE DRAPEAU 12,732 04:43
246 477 CHARTRELLE CHRISTOPHE 00:49:29 SEM 110 00:16:13 00:16:13 NON LICENCIE 12,732 04:43
247 153 DUHAMEL VINCENT 00:49:30 V1M 77 00:16:14 00:14:55 NON LICENCIE 12,727 04:43
248 362 DUFEUTRELLE ALEXANDRE 00:49:33 SEM 111 00:16:17 00:16:17 NON LICENCIE 12,714 04:43
249 250 WILLEMAN NATHALIE 00:49:34 V1F 11 00:16:18 00:06:24 TOUQUET OPALE ATHLETISME 12,710 04:43
250 219 BOULY STEPHANIE 00:49:38 V1F 12 00:16:22 00:06:28 COLEMBERT 12,693 04:44
251 57 RINGOT JEAN MARIE 00:49:39 V2M 28 00:16:23 00:13:03 NON LICENCIE 12,689 04:44
252 218 CORNILLE VINCENT 00:49:39 SEM 112 00:16:23 00:16:23 COLEMBERT 12,689 04:44
253 261 CANONNE FANNY 00:49:45 SEF 7 00:16:29 00:07:28 LE DRAPEAU 12,663 04:44
254 70 BRIDOUX CHRISTINE 00:49:48 V1F 13 00:16:32 00:06:38 SPORT PLUS 12,651 04:45
255 71 BUTEL MARIE 00:49:48 SEF 8 00:16:32 00:07:31 SPORT PLUS 12,651 04:45
256 426 EVERAERE ANTHONY 00:49:58 JUM 7 00:16:42 00:10:01 ENTENTE MARITIME ATHL. 12,608 04:46
257 444 PETA JEANNE ESTELLE 00:49:59 V1F 14 00:16:43 00:06:49 NON LICENCIE 12,604 04:46
258 445 PIDOU HERVE 00:50:06 V2M 29 00:16:50 00:13:30 NON LICENCIE 12,575 04:46
259 359 LEHMANN PHILIPPE 00:50:07 V2M 30 00:16:51 00:13:31 NON LICENCIE 12,571 04:46
260 446 GRENON ERIC 00:50:08 V1M 78 00:16:52 00:15:33 NON LICENCIE 12,566 04:46
261 113 DEMBREMENT STEPHANE 00:50:09 V1M 79 00:16:53 00:15:34 ATHLETISME CLUB OUTREAU 12,562 04:47
262 360 TERNISIEN SEBASTIEN 00:50:09 SEM 113 00:16:53 00:16:53 NON LICENCIE 12,562 04:47
263 136 NAVET FLORENCE 00:50:09 V1F 15 00:16:53 00:06:59 ATHLETISME CLUB OUTREAU 12,562 04:47
264 342 BIZET VINCENT 00:50:10 SEM 114 00:16:54 00:16:54 BOURTHES 12,558 04:47
265 123 LEDOUX STEPHANE 00:50:10 V1M 80 00:16:54 00:15:35 ATHLETISME CLUB OUTREAU 12,558 04:47
266 291 FOURNIER FABRICE 00:50:11 V1M 81 00:16:55 00:15:36 ATHLETISME CLUB OUTREAU 12,554 04:47
267 50 LANCE SYLVAIN 00:50:11 SEM 115 00:16:55 00:16:55 NON LICENCIE 12,554 04:47
268 395 GUERVILLE XAVIER 00:50:26 V1M 82 00:17:10 00:15:51 NON LICENCIE 12,492 04:48
269 140 PODEVIN THIERRY 00:50:27 V2M 31 00:17:11 00:13:51 ATHLETISME CLUB OUTREAU 12,488 04:48
270 303 VERBREGUE MATTHIEU 00:50:32 SEM 116 00:17:16 00:17:16 NON LICENCIE 12,467 04:49
271 236 CHESNEL JOSEPH 00:50:33 V4M 2 00:17:17 00:01:21 FLERS CONDE ATHLETISME 12,463 04:49
272 433 ROBERT DAVID 00:50:35 V1M 83 00:17:19 00:16:00 NON LICENCIE 12,455 04:49
273 454 BIGOT MARIE-CHRISTINE 00:50:37 V2F 4 00:17:21 00:04:51 NON LICENCIE 12,446 04:49
274 440 PAINSET CORINNE 00:50:37 V1F 16 00:17:21 00:07:27 NON LICENCIE 12,446 04:49
275 30 GIGADEN MATHILDE 00:50:42 SEF 9 00:17:26 00:08:25 NON LICENCIE 12,426 04:50
276 41 ROGEE MATTHIEU 00:50:43 SEM 117 00:17:27 00:17:27 NON LICENCIE 12,422 04:50
277 213 DUSSART MURIEL 00:50:47 V2F 5 00:17:31 00:05:01 COLEMBERT 12,406 04:50
278 182 SAGNIER REMY 00:50:48 SEM 118 00:17:32 00:17:32 WIMEREUX RUNNING CLUB 12,402 04:50
279 361 GODARD PASCAL 00:50:50 V1M 84 00:17:34 00:16:15 X'TREM TEAM 12,393 04:50
280 183 SPILMONT NICOLAS 00:50:55 SEM 119 00:17:39 00:17:39 WIMEREUX RUNNING CLUB 12,373 04:51
281 499 MYCINSKI STANISLAS 00:50:57 V2M 32 00:17:41 00:14:21 ELAN FRUGEOIS 12,365 04:51
282 402 MAQUINGHEN CELINE 00:50:58 SEF 10 00:17:42 00:08:41 SAINT MARTIN ATHLETISME 12,361 04:51
283 343 MAGNIER PETER 00:51:05 V1M 85 00:17:49 00:16:30 NON LICENCIE 12,333 04:52
284 319 MANCHUELLE STEPHANE 00:51:12 V1M 86 00:17:56 00:16:37 ATHLETIQUE CLUB CAPELLOIS 12,305 04:53
285 148 SENECHAL SEBASTIEN 00:51:14 V1M 87 00:17:58 00:16:39 ATHLETISME CLUB OUTREAU 12,297 04:53
286 290 LABRADOR CESAR 00:51:14 V1M 88 00:17:58 00:16:39 ATHLETISME CLUB OUTREAU 12,297 04:53
287 159 DELDREVE MICHAEL 00:51:15 SEM 120 00:17:59 00:17:59 NON LICENCIE 12,293 04:53
288 24 BALY ADRIEN 00:51:17 SEM 121 00:18:01 00:18:01 NON LICENCIE 12,285 04:53
289 125 LIBERT MARIE-FRANCE 00:51:17 V2F 6 00:18:01 00:05:31 ATHLETISME CLUB OUTREAU 12,285 04:53
290 172 BOULANGER LILIANE 00:51:20 V1F 17 00:18:04 00:08:10 NON LICENCIE 12,273 04:53
291 335 LOUASSE ALEXANDRE 00:51:29 SEM 122 00:18:13 00:18:13 NON LICENCIE 12,237 04:54
292 246 DEVILLERS VALENTIN 00:51:33 SEM 123 00:18:17 00:18:17 NON LICENCIE 12,221 04:55
293 264 LEPERCQ FLORENT 00:51:33 V2M 33 00:18:17 00:14:57 LE DRAPEAU 12,221 04:55
294 474 THUILLIER FABRICE 00:51:42 SEM 124 00:18:26 00:18:26 NON LICENCIE 12,186 04:55
295 233 GERME MYRIAM 00:51:48 V2F 7 00:18:32 00:06:02 SAINT MARTIN ATHLETISME 12,162 04:56
296 141 RAMONET MARC 00:51:52 V2M 34 00:18:36 00:15:16 ATHLETISME CLUB OUTREAU 12,147 04:56
297 237 DENEZ ANNE-SOPHIE 00:51:56 V1F 18 00:18:40 00:08:46 PATRIOTES DE GUINES 12,131 04:57
298 471 SEGRET ESTELLE 00:52:02 SEF 11 00:18:46 00:09:45 CALOTTERIE 12,108 04:57
299 265 LEBEGUE THERESE 00:52:04 V2F 8 00:18:48 00:06:18 LE DRAPEAU 12,100 04:58
300 221 LABBE TONY 00:52:11 V1M 89 00:18:55 00:17:36 NON LICENCIE 12,073 04:58
301 231 GOUTARD PHILIPPE 00:52:12 V2M 35 00:18:56 00:15:36 SAINT MARTIN ATHLETISME 12,069 04:58
302 296 VALENTI CHRISTELLE 00:52:15 SEF 12 00:18:59 00:09:58 NON LICENCIE 12,057 04:59
303 18 MAILLARD BEATRICE 00:52:20 V1F 19 00:19:04 00:09:10 NON LICENCIE 12,038 04:59
304 63 FORTIN BENOIT 00:52:24 SEM 125 00:19:08 00:19:08 NON LICENCIE 12,023 04:59
305 468 POSTA NATHALIE 00:52:27 V1F 20 00:19:11 00:09:17 NON LICENCIE 12,011 05:00
306 77 TETARD ISABELLE 00:52:36 V1F 21 00:19:20 00:09:26 SPORT PLUS 11,977 05:01
307 410 LEDOUX JEREMY 00:52:47 SEM 126 00:19:31 00:19:31 NON LICENCIE 11,936 05:02
308 46 MOREAU JULIEN 00:52:48 SEM 127 00:19:32 00:19:32 NON LICENCIE 11,932 05:02
309 226 JUSTIN JOSIANE 00:52:48 V1F 22 00:19:32 00:09:38 SAINT MARTIN ATHLETISME 11,932 05:02
310 206 RAY ISABELLE 00:52:53 SEF 13 00:19:37 00:10:36 CULTURE DANSE ETAPLES 11,913 05:02
311 64 CLEQUIN RENE 00:52:55 V3M 5 00:19:39 00:11:05 NON LICENCIE 11,906 05:02
312 235 COHEN-SOLAL LAURENCE 00:53:00 V1F 23 00:19:44 00:09:50 JOGGING CLUB LICQUOIS 11,887 05:03
313 91 EVRARD DIDIER 00:53:06 V2M 36 00:19:50 00:16:30 NON LICENCIE 11,864 05:03
314 478 MAHIEU CEDRIC 00:53:10 SEM 128 00:19:54 00:19:54 NON LICENCIE 11,850 05:04
315 184 SPILMONT HELENE 00:53:12 SEF 14 00:19:56 00:10:55 WIMEREUX RUNNING CLUB 11,842 05:04
316 475 PIDOUX WILLY 00:53:13 SEM 129 00:19:57 00:19:57 NON LICENCIE 11,838 05:04
317 209 MARIQUE PERRINE 00:53:29 CAF 1 00:20:13 00:00:00 COLEMBERT 11,779 05:06
318 443 FRERE CHRISTELLE 00:53:34 V1F 24 00:20:18 00:10:24 NON LICENCIE 11,761 05:06
319 318 MAGNIER GERALD 00:53:34 V1M 90 00:20:18 00:18:59 ATHLETIQUE CLUB CAPELLOIS 11,761 05:06
320 241 DU SOULIER CARINE 00:53:35 V1F 25 00:20:19 00:10:25 NON LICENCIE 11,757 05:06
321 423 DUSOULIER ARNAUD 00:53:35 V1M 91 00:20:19 00:19:00 OGS CYCLISME 11,757 05:06
322 344 MAGNIER GAETAN 00:53:38 JUM 8 00:20:22 00:13:41 SAINT-MARTIN ATHLÉTISME 11,746 05:06
323 330 BLONDEL CAMILLE 00:53:43 SEF 15 00:20:27 00:11:26 NON LICENCIE 11,728 05:07
324 484 MERLIN OLIVIER 00:53:47 SEM 130 00:20:31 00:20:31 NON LICENCIE 11,714 05:07
325 282 DUHAMEL THIERRY 00:53:49 V1M 92 00:20:33 00:19:14 LE DRAPEAU 11,706 05:08
326 420 COZETTE LAURENCE 00:53:51 SEF 16 00:20:35 00:11:34   11,699 05:08
327 229 MALFOY JEAN-PIERRE 00:53:55 V3M 6 00:20:39 00:12:05 SAINT MARTIN ATHLETISME 11,685 05:08
328 152 RIGOULET DOROTHEE 00:53:55 SEF 17 00:20:39 00:11:38 NON LICENCIE 11,685 05:08
329 242 VERGEOT CLAUDE 00:53:56 V3M 7 00:20:40 00:12:06 ELAN FRUGES 11,681 05:08
330 418 DEMAY JEAN-FRANCOIS 00:53:56 V2M 37 00:20:40 00:17:20 NON LICENCIE 11,681 05:08
331 486 LEBON MAGALI 00:53:56 SEF 18 00:20:40 00:11:39 EFS REIMS 11,681 05:08
332 108 COUSIN SEVERINE 00:53:57 V1F 26 00:20:41 00:10:47 ATHLETISME CLUB OUTREAU 11,677 05:08
333 384 TIERTANT HELENE 00:53:58 V1F 27 00:20:42 00:10:48 ASD HESDIN 11,674 05:08
334 15 HEMBERT GREGOIRE 00:53:58 SEM 131 00:20:42 00:20:42 NON LICENCIE 11,674 05:08
335 7 MILLE FRANCIS 00:53:59 V2M 38 00:20:43 00:17:23 NON LICENCIE 11,670 05:08
336 157 ROLAND BERTRAND 00:54:08 V2M 39 00:20:52 00:17:32 ARC INTERNATIONAL 11,638 05:09
337 4 HUYGHE DIMITRI 00:54:10 SEM 132 00:20:54 00:20:54 NON LICENCIE 11,631 05:10
338 307 ETCHEPARE JEAN-PHILIPPE 00:54:13 SEM 133 00:20:57 00:20:57 PATRIOTES DE GUINES 11,620 05:10
339 495 SAND OLIVIER 00:54:17 SEM 134 00:21:01 00:21:01   11,606 05:10
340 491 WACOGNE PHILIPPE 00:54:18 V2M 40 00:21:02 00:17:42 NON LICENCIE 11,602 05:10
341 74 DENIS CORINNE 00:54:19 V1F 28 00:21:03 00:11:09 SPORT PLUS 11,599 05:10
342 476 POINTFER JACQUES 00:54:23 V3M 8 00:21:07 00:12:33 SPORT PLUS 11,584 05:11
343 43 LAUNAY KATELL 00:54:30 SEF 19 00:21:14 00:12:13 NON LICENCIE 11,560 05:11
344 388 COURQUIN CHRISTOPHE 00:54:32 V1M 93 00:21:16 00:19:57 NON LICENCIE 11,553 05:12
345 492 SOUFFLET YOAN 00:54:36 SEM 135 00:21:20 00:21:20 ELAN FRUGEOIS 11,538 05:12
346 207 VANNOORENGERGHE EMMANUEL 00:54:36 V1M 94 00:21:20 00:20:01 COLEMBERT 11,538 05:12
347 223 VAILLANT PATRICE 00:54:43 V1M 95 00:21:27 00:20:08 NON LICENCIE 11,514 05:13
348 498 LASSON NATHALIE 00:54:46 V1F 29 00:21:30 00:11:36 NON LICENCIE 11,503 05:13
349 189 PERSYN STEPHANE 00:54:49 V2M 41 00:21:33 00:18:13 NON LICENCIE 11,493 05:13
350 118 GOLLIOT DIDIER 00:54:51 V1M 96 00:21:35 00:20:16 ATHLETISME CLUB OUTREAU 11,486 05:13
351 244 MAGNIER REGIS 00:55:06 V1M 97 00:21:50 00:20:31 CULTURE DANSE ETAPLES 11,434 05:15
352 365 PLARD EMMANUEL 00:55:06 V1M 98 00:21:50 00:20:31 NON LICENCIE 11,434 05:15
353 289 AMICO LABRADOR LAURA 00:55:09 SEF 20 00:21:53 00:12:52 ATHLETISME CLUB OUTREAU 11,423 05:15
354 442 PARENT THOMAS 00:55:15 SEM 136 00:21:59 00:21:59 NON LICENCIE 11,403 05:16
355 112 DELANNOY AURELIE 00:55:28 SEF 21 00:22:12 00:13:11 ATHLETISME CLUB OUTREAU 11,358 05:17
356 436 GARENAUX DOMINIQUE 00:55:29 V3M 9 00:22:13 00:13:39 NON LICENCIE 11,355 05:17
357 13 BERGAMASCO STEPHANE 00:55:34 V1M 99 00:22:18 00:20:59 NON LICENCIE 11,338 05:18
358 62 BERTHE PATRICK 00:55:37 V2M 42 00:22:21 00:19:01 NON LICENCIE 11,328 05:18
359 145 ROUX FLORENCE 00:55:38 SEF 22 00:22:22 00:13:21 ATHLETISME CLUB OUTREAU 11,324 05:18
360 309 DELANNOY BASTIEN 00:55:38 SEM 137 00:22:22 00:22:22 AMICALE HOSPITALIERS BOULOGNE 11,324 05:18
361 96 WATTEZ THOMAS 00:55:43 SEM 138 00:22:27 00:22:27 NON LICENCIE 11,307 05:18
362 47 NOEL JOHAN 00:55:46 SEM 139 00:22:30 00:22:30 NON LICENCIE 11,297 05:19
363 480 MAILLOT FLORENCE 00:55:54 SEF 23 00:22:38 00:13:37 NON LICENCIE 11,270 05:19
364 406 FONTAINE MARC 00:55:54 V3M 10 00:22:38 00:14:04 NON LICENCIE 11,270 05:19
365 338 MOREZ LAURENT 00:56:09 V1M 100 00:22:53 00:21:34 ANDREY ATHLETISME 11,220 05:21
366 367 RANGEON OLIVIER 00:56:19 V1M 101 00:23:03 00:21:44   11,187 05:22
367 458 BEUTIN ALEXANDRE 00:56:19 SEM 140 00:23:03 00:23:03 NON LICENCIE 11,187 05:22
368 370 ?DOSSARD #370 00:56:23 SEM 141 00:23:07 00:23:07   11,174 05:22
369 485 MERLIN JULIE 00:56:27 SEF 24 00:23:11 00:14:10 NON LICENCIE 11,160 05:23
370 187 DUPUREUR EMMANUEL 00:56:28 V1M 102 00:23:12 00:21:53 WIMEREUX RUNNING CLUB 11,157 05:23
371 249 AGEZ DAVID 00:56:31 V1M 103 00:23:15 00:21:56 NON LICENCIE 11,147 05:23
372 34 MAGNIER BEATRICE 00:56:38 V2F 9 00:23:22 00:10:52 NON LICENCIE 11,124 05:24
373 60 BEAUDRAPS PASCAL 00:56:42 V2M 43 00:23:26 00:20:06 NON LICENCIE 11,111 05:24
374 204 PARENTY PHILIPPE 00:56:48 SEM 142 00:23:32 00:23:32 NON LICENCIE 11,092 05:25
375 116 FREEL LUCIE 00:56:54 SEF 25 00:23:38 00:14:37 ATHLETISME CLUB OUTREAU 11,072 05:25
376 396 SART LAURENCE 00:57:11 SEF 26 00:23:55 00:14:54 NON LICENCIE 11,017 05:27
377 346 GOSSELIN BRUNO 00:57:11 V2M 44 00:23:55 00:20:35 NON LICENCIE 11,017 05:27
378 413 DRAIN RAPHAEL 00:57:12 SEM 143 00:23:56 00:23:56 NON LICENCIE 11,014 05:27
379 222 BOCHU MICHEL 00:57:16 V2M 45 00:24:00 00:20:40 NON LICENCIE 11,001 05:27
380 225 CARON LYUBA 00:57:22 V3F 1 00:24:06 00:00:00 SAINT MARTIN ATHLETISME 10,982 05:28
381 315 VASSEUR CHRISTELE 00:57:33 V1F 30 00:24:17 00:14:23 AMICALE HOSPITALIERS BOULOGNE 10,947 05:29
382 179 LOONIS VERONIQUE 00:57:36 SEF 27 00:24:20 00:15:19 WIMEREUX RUNNING CLUB 10,938 05:29
383 181 VASSEUR MAITE 00:57:36 V3F 2 00:24:20 00:00:14 WIMEREUX RUNNING CLUB 10,938 05:29
384 323 PLOUVIN PATRICIA 00:57:47 V2F 10 00:24:31 00:12:01   10,903 05:30
385 311 FORESTIER DELPHINE 00:57:56 V1F 31 00:24:40 00:14:46 AMICALE HOSPITALIERS BOULOGNE 10,875 05:31
386 185 DEBUSSCHERE JACKY 00:58:08 V3M 11 00:24:52 00:16:18 WIMEREUX RUNNING CLUB 10,837 05:32
387 193 GOURNAY YANNICK 00:58:29 SEM 144 00:25:13 00:25:13 NON LICENCIE 10,772 05:34
388 473 MITOIRE VINCENT 00:58:30 SEM 145 00:25:14 00:25:14 NON LICENCIE 10,769 05:34
389 211 MAZOUAT CAMILLE 00:58:45 SEF 28 00:25:29 00:16:28 COLEMBERT 10,723 05:36
390 180 LORGNIER SEGOLENE 00:58:49 SEF 29 00:25:33 00:16:32 WIMEREUX RUNNING CLUB 10,711 05:36
391 138 PALFRAY MARTINE 00:58:57 V2F 11 00:25:41 00:13:11 ATHLETISME CLUB OUTREAU 10,687 05:37
392 331 GELLE ERIC 00:59:05 V2M 46 00:25:49 00:22:29 C-C-CASSEL 10,663 05:38
393 279 PREMEAU CHRISTINE 00:59:05 V2F 12 00:25:49 00:13:19 LE DRAPEAU 10,663 05:38
394 427 LEVEL JEAN-PIERRE 00:59:14 V1M 104 00:25:58 00:24:39 NON LICENCIE 10,636 05:38
395 314 PETIT FREDERIC 00:59:23 V2M 47 00:26:07 00:22:47 AMICALE HOSPITALIERS BOULOGNE 10,609 05:39
396 174 DUBRULLE MARC 00:59:26 V2M 48 00:26:10 00:22:50 WIMEREUX RUNNING CLUB 10,600 05:40
397 456 POURRE PASCAL 00:59:35 V2M 49 00:26:19 00:22:59 NON LICENCIE 10,573 05:40
398 364 MONCHY LAURE HELENE 00:59:37 SEF 30 00:26:21 00:17:20 NON LICENCIE 10,568 05:41
399 293 LIZON FREDERIQUE 00:59:42 V1F 32 00:26:26 00:16:32 NON LICENCIE 10,553 05:41
400 127 MAILLOT MELANIE 00:59:51 JUF 1 00:26:35 00:00:00 ATHLETISME CLUB OUTREAU 10,526 05:42
401 51 MERLIN JEAN CLAUDE 01:00:00 V2M 50 00:26:44 00:23:24 NON LICENCIE 10,500 05:43
402 479 HOLUIGUE DAVID 01:00:02 SEM 146 00:26:46 00:26:46 NON LICENCIE 10,494 05:43
403 469 DEPERLECQUE MICKAEL 01:00:05 SEM 147 00:26:49 00:26:49 NON LICENCIE 10,485 05:43
404 163 HUS JULIETTE 01:00:09 SEF 31 00:26:53 00:17:52 NON LICENCIE 10,474 05:44
405 162 HUS BERNARD 01:00:09 V1M 105 00:26:53 00:25:34 NON LICENCIE 10,474 05:44
406 270 RIQUIER MARIELLE 01:00:17 V2F 13 00:27:01 00:14:31 LE DRAPEAU 10,451 05:44
407 292 KEDADRA OLIVIER 01:00:18 V1M 106 00:27:02 00:25:43 NON LICENCIE 10,448 05:45
408 44 ALBA CHRISTOPHE 01:00:28 SEM 148 00:27:12 00:27:12 NON LICENCIE 10,419 05:46
409 386 HUMIERE PATRICE 01:00:35 V1M 107 00:27:19 00:26:00 NON LICENCIE 10,399 05:46
410 437 MACQUET PHILIPPE 01:00:35 V2M 51 00:27:19 00:23:59   10,399 05:46
411 248 PEREZ FLORIMOND 01:00:43 V2M 52 00:27:27 00:24:07 NON LICENCIE 10,376 05:47
412 59 BERTHOME SYLVIE 01:01:01 V2F 14 00:27:45 00:15:15 NON LICENCIE 10,325 05:49
413 466 POSTA MARIE-HELENE 01:01:08 SEF 32 00:27:52 00:18:51 NON LICENCIE 10,305 05:49
414 58 BERNEAUX CAROLE ANNE 01:01:10 SEF 33 00:27:54 00:18:53 NON LICENCIE 10,300 05:50
415 464 DUCROCQ CAROLE 01:01:12 V1F 33 00:27:56 00:18:02 NON LICENCIE 10,294 05:50
416 435 SPIERS EDOUARD 01:01:28 SEM 149 00:28:12 00:28:12 NON LICENCIE 10,249 05:51
417 170 POUCHAIN JEAN PAUL 01:01:36 V1M 108 00:28:20 00:27:01 TOUQUET OPALE ATHLETISME 10,227 05:52
418 385 TIERTANT ESTHER 01:02:02 CAF 2 00:28:46 00:08:33   10,156 05:54
419 66 FAUQUET ISBELLE 01:02:07 V1F 34 00:28:51 00:18:57 NON LICENCIE 10,142 05:55
420 155 CAINNE ANITA 01:02:07 V2F 15 00:28:51 00:16:21 ARC INTERNATIONAL 10,142 05:55
421 366 FERNANDES YANN 01:02:09 SEM 150 00:28:53 00:28:53   10,137 05:55
422 27 BERCY JEAN CLAUDE 01:02:42 V3M 12 00:29:26 00:20:52 NON LICENCIE 10,048 05:58
423 168 BERCY CYRIL 01:02:42 SEM 151 00:29:26 00:29:26 NON LICENCIE 10,048 05:58
424 247 DUMETS DAMIEN 01:02:46 SEM 152 00:29:30 00:29:30 NON LICENCIE 10,037 05:59
425 393 BUTEL CATHERINE 01:03:01 V2F 16 00:29:45 00:17:15 NON LICENCIE 9,997 06:00
426 288 PETROVIC KARMEN 01:03:25 SEF 34 00:30:09 00:21:08 NON LICENCIE 9,934 06:02
427 160 CAUX MATHILDE 01:03:42 SEF 35 00:30:26 00:21:25 NON LICENCIE 9,890 06:04
428 192 NEGRI PASCALE 01:03:42 SEF 36 00:30:26 00:21:25 NON LICENCIE 9,890 06:04
429 463 PLE MARIE-CELINE 01:04:00 SEF 37 00:30:44 00:21:43 NON LICENCIE 9,844 06:06
430 35 MAILLARD NADINE 01:04:30 V3F 3 00:31:14 00:07:08 NON LICENCIE 9,767 06:09
431 313 MINET ROGER 01:04:55 V3M 13 00:31:39 00:23:05 NON LICENCIE 9,705 06:11
432 40 BLOUIN DELPHINE 01:05:04 V1F 35 00:31:48 00:21:54 NON LICENCIE 9,682 06:12
433 325 PLOUVIN LUDIVINE 01:05:09 SEF 38 00:31:53 00:22:52 NON LICENCIE 9,670 06:12
434 196 MACQUET RICHARD 01:05:28 V1M 109 00:32:12 00:30:53 NON LICENCIE 9,623 06:14
435 415 KERAMBRUN ELODIE 01:05:35 SEF 39 00:32:19 00:23:18 NON LICENCIE 9,606 06:15
436 65 HAMY DANIELE 01:05:50 V1F 36 00:32:34 00:22:40 NON LICENCIE 9,570 06:16
437 336 PASTEAU BENOIT 01:06:17 SEM 153 00:33:01 00:33:01 NON LICENCIE 9,505 06:19
438 21 GOURNAY AUDREY 01:06:20 SEF 40 00:33:04 00:24:03 NON LICENCIE 9,497 06:19
439 490 WATTEZ JEAN LUC 01:07:20 V3M 14 00:34:04 00:25:30   9,356 06:25
440 54 FOURNIER SYLVAINE 01:07:30 SEF 41 00:34:14 00:25:13 NON LICENCIE 9,333 06:26
441 86 LETIZIA WALTER 01:07:38 V2M 53 00:34:22 00:31:02 NON LICENCIE 9,315 06:26
442 49 GRANCIER GUILLAUME 01:07:54 SEM 154 00:34:38 00:34:38 NON LICENCIE 9,278 06:28
443 227 LECLERCQ ANNE-MARIE 01:08:44 V2F 17 00:35:28 00:22:58 SAINT MARTIN ATHLETISME 9,166 06:33
444 48 HERBEZ MELANIE 01:10:15 SEF 42 00:36:59 00:27:58 NON LICENCIE 8,968 06:41
445 351 DUFOUR GARANCE 01:11:00 SEF 43 00:37:44 00:28:43 NON LICENCIE 8,873 06:46
446 32 LIGNIER MARIE-France 01:13:40 V3F 4 00:40:24 00:16:18 NON LICENCIE 8,552 07:01
447 363 LEVEL AUDE 01:17:13 SEF 44 00:43:57 00:34:56 NON LICENCIE 8,159 07:21